Time;durP1;ratioP1;P1;durP2;ratioP2;P2;SDS_P1;SDS_P2;PMS_P1;PMS_P2;Temp;Humidity;BMP_temperature;BMP_pressure;BME280_temperature;BME280_humidity;BME280_pressure;Samples;Min_cycle;Max_cycle;Signal;HPM_P1;HPM_P2
2022/09/08 00:00:19;;;;;;;4.33;2.17;;;9.10;99.90;;;;;;4879302;29;20182;-84
2022/09/08 00:02:44;;;;;;;4.93;2.30;;;9.10;99.90;;;;;;4879274;29;20221;-84
2022/09/08 00:05:14;;;;;;;2.37;1.97;;;10.00;99.90;;;;;;4879535;29;20185;-84
2022/09/08 00:07:42;;;;;;;3.87;2.43;;;8.10;99.90;;;;;;4879602;29;20225;-84
2022/09/08 00:10:08;;;;;;;5.07;2.70;;;9.10;99.90;;;;;;4879265;29;20218;-85
2022/09/08 00:12:37;;;;;;;11.23;3.20;;;8.90;99.90;;;;;;4879152;29;20201;-84
2022/09/08 00:15:03;;;;;;;6.47;1.90;;;8.70;99.90;;;;;;4879147;29;20273;-84
2022/09/08 00:17:29;;;;;;;5.63;2.87;;;8.90;99.90;;;;;;4880065;29;20182;-85
2022/09/08 00:19:54;;;;;;;3.40;2.27;;;8.90;99.90;;;;;;4879758;29;20190;-84
2022/09/08 00:22:20;;;;;;;3.90;2.30;;;9.20;99.90;;;;;;4879401;29;20219;-84
2022/09/08 00:24:46;;;;;;;3.13;1.93;;;10.90;99.90;;;;;;4863858;29;20269;-84
2022/09/08 00:27:12;;;;;;;3.37;2.57;;;;;;;;;;4879368;29;20225;-84
2022/09/08 00:29:38;;;;;;;2.20;2.00;;;8.90;99.90;;;;;;4879775;29;20550;-84
2022/09/08 00:32:03;;;;;;;1.57;1.47;;;9.10;99.90;;;;;;4863438;29;20236;-84
2022/09/08 00:34:29;;;;;;;2.53;2.20;;;8.90;99.90;;;;;;4863427;29;20193;-85
2022/09/08 00:36:56;;;;;;;4.73;2.70;;;10.20;99.90;;;;;;4863406;29;20670;-85
2022/09/08 00:39:22;;;;;;;4.63;2.77;;;9.00;99.90;;;;;;4863355;29;20194;-85
2022/09/08 00:41:50;;;;;;;1.13;1.10;;;9.10;99.90;;;;;;4880185;29;20190;-85
2022/09/08 00:44:48;;;;;;;2.67;2.07;;;9.00;99.90;;;;;;4880280;29;20182;-85
2022/09/08 00:47:25;;;;;;;1.77;1.47;;;8.90;99.90;;;;;;4879122;29;20182;-85
2022/09/08 00:50:04;;;;;;;3.88;2.58;;;8.90;99.90;;;;;;4880316;29;20174;-85
2022/09/08 00:52:44;;;;;;;2.07;1.57;;;8.90;99.90;;;;;;4879725;29;20185;-85
2022/09/08 00:55:11;;;;;;;5.57;2.07;;;10.40;99.90;;;;;;4880093;29;20181;-85
2022/09/08 00:57:37;;;;;;;2.60;1.90;;;8.80;99.90;;;;;;4862758;29;20241;-85
2022/09/08 01:00:08;;;;;;;1.43;1.33;;;8.90;99.90;;;;;;4879881;29;20209;-85
2022/09/08 01:02:34;;;;;;;3.47;1.80;;;8.50;99.90;;;;;;4878174;29;20186;-85
2022/09/08 01:05:07;;;;;;;2.93;2.57;;;9.20;99.90;;;;;;4879790;29;20699;-85
2022/09/08 01:13:38;;;;;;;3.33;2.27;;;8.70;99.90;;;;;;4879353;29;20201;-84
2022/09/08 01:16:06;;;;;;;2.47;1.17;;;8.40;99.90;;;;;;4879977;29;20213;-85
2022/09/08 01:18:35;;;;;;;2.07;1.90;;;9.00;99.90;;;;;;4878265;29;20190;-85
2022/09/08 01:21:24;;;;;;;2.30;1.73;;;8.50;99.90;;;;;;4863641;29;20201;-85
2022/09/08 01:24:27;;;;;;;5.77;3.50;;;8.80;99.90;;;;;;4879743;29;20178;-85
2022/09/08 01:27:11;;;;;;;4.00;2.20;;;8.80;99.90;;;;;;4878317;29;20178;-85
2022/09/08 01:29:38;;;;;;;5.20;2.70;;;8.50;99.90;;;;;;4877949;29;20214;-85
2022/09/08 01:32:05;;;;;;;7.60;3.80;;;10.30;99.90;;;;;;4878195;29;20244;-85
2022/09/08 01:34:42;;;;;;;2.63;2.43;;;8.70;99.90;;;;;;4862663;29;20192;-85
2022/09/08 01:37:07;;;;;;;3.63;3.07;;;9.00;99.90;;;;;;4879827;29;20253;-85
2022/09/08 01:39:33;;;;;;;5.23;2.53;;;8.80;99.90;;;;;;4862638;29;20641;-85
2022/09/08 01:41:59;;;;;;;5.03;2.87;;;8.60;99.90;;;;;;4883153;29;20178;-85
2022/09/08 01:44:28;;;;;;;4.43;2.07;;;10.60;99.90;;;;;;4883270;29;20174;-85
2022/09/08 01:46:54;;;;;;;3.30;1.97;;;8.30;99.90;;;;;;4883278;29;20174;-84
2022/09/08 01:49:20;;;;;;;1.93;1.73;;;;;;;;;;4883267;29;20238;-84
2022/09/08 01:51:46;;;;;;;5.90;2.23;;;;;;;;;;4881701;29;20225;-85
2022/09/08 01:54:12;;;;;;;5.63;2.67;;;;;;;;;;4883132;29;20675;-84
2022/09/08 01:56:38;;;;;;;4.67;1.40;;;8.40;99.90;;;;;;4866338;29;20193;-84
2022/09/08 01:59:03;;;;;;;1.63;1.53;;;8.40;99.90;;;;;;4866099;29;20241;-85
2022/09/08 02:01:29;;;;;;;8.30;1.20;;;;;;;;;;4883180;29;20209;-84
2022/09/08 02:03:55;;;;;;;2.23;2.03;;;;;;;;;;4882725;29;20648;-84
2022/09/08 02:06:21;;;;;;;2.13;2.03;;;8.60;99.90;;;;;;4866759;29;20200;-84
2022/09/08 02:08:51;;;;;;;2.87;1.70;;;8.20;99.90;;;;;;4881796;29;20245;-85
2022/09/08 02:11:17;;;;;;;2.43;1.53;;;8.30;99.90;;;;;;4866220;29;20224;-85
2022/09/08 02:13:43;;;;;;;4.03;2.30;;;8.20;99.90;;;;;;4866198;29;20190;-84
2022/09/08 02:16:11;;;;;;;1.37;1.27;;;8.30;99.90;;;;;;4881864;29;20181;-85
2022/09/08 02:18:38;;;;;;;3.70;1.93;;;8.00;99.90;;;;;;4881361;29;20224;-85
2022/09/08 02:21:07;;;;;;;3.07;1.87;;;8.20;99.90;;;;;;4882660;29;20193;-85
2022/09/08 02:23:34;;;;;;;2.30;1.90;;;8.20;99.90;;;;;;4881287;29;20675;-85
2022/09/08 02:26:00;;;;;;;2.90;1.67;;;8.20;99.90;;;;;;4881323;29;20651;-84
2022/09/08 02:28:26;;;;;;;1.43;1.33;;;8.80;99.90;;;;;;4882391;29;20181;-85
2022/09/08 02:30:52;;;;;;;6.77;2.90;;;;;;;;;;4865147;29;20691;-84
2022/09/08 02:33:18;;;;;;;2.97;1.60;;;;;;;;;;4881007;29;20226;-86
2022/09/08 02:35:43;;;;;;;1.07;1.07;;;8.10;99.90;;;;;;4880960;29;20663;-85
2022/09/08 02:38:09;;;;;;;2.43;1.57;;;9.00;99.90;;;;;;4881103;29;20202;-85
2022/09/08 02:40:34;;;;;;;1.57;1.47;;;8.10;99.90;;;;;;4881110;29;20190;-86
2022/09/08 02:43:00;;;;;;;1.60;1.50;;;8.00;99.90;;;;;;4880828;29;20614;-85
2022/09/08 02:45:26;;;;;;;1.73;1.53;;;;;;;;;;4880803;29;20186;-85
2022/09/08 02:47:51;;;;;;;2.27;1.47;;;8.00;99.90;;;;;;4880506;29;20205;-85
2022/09/08 02:50:17;;;;;;;2.07;1.63;;;8.10;99.90;;;;;;4881912;29;20687;-86
2022/09/08 02:52:43;;;;;;;1.77;1.63;;;7.90;99.90;;;;;;4863863;29;20190;-85
2022/09/08 02:55:09;;;;;;;2.50;2.00;;;8.00;99.90;;;;;;4880907;29;20549;-85
2022/09/08 02:57:34;;;;;;;1.73;1.57;;;10.40;99.90;;;;;;4881743;29;20238;-85
2022/09/08 03:00:00;;;;;;;2.93;2.43;;;9.00;99.90;;;;;;4880336;29;20193;-85
2022/09/08 03:02:25;;;;;;;3.03;1.70;;;8.10;99.90;;;;;;4880541;29;20201;-85
2022/09/08 03:04:51;;;;;;;2.10;1.33;;;8.00;99.90;;;;;;4881981;29;20209;-85
2022/09/08 03:07:18;;;;;;;5.03;1.40;;;;;;;;;;4881895;29;20213;-85
2022/09/08 03:09:44;;;;;;;1.63;1.50;;;8.00;99.90;;;;;;4880243;29;20285;-87
2022/09/08 03:12:10;;;;;;;4.07;2.50;;;7.90;99.90;;;;;;4881459;29;20304;-84
2022/09/08 03:14:36;;;;;;;1.23;1.13;;;7.90;99.90;;;;;;4881614;29;20265;-84
2022/09/08 03:17:02;;;;;;;1.30;1.20;;;7.90;99.90;;;;;;4881107;29;20208;-83
2022/09/08 03:19:28;;;;;;;2.30;1.97;;;7.90;99.90;;;;;;4880810;29;20683;-84
2022/09/08 03:21:54;;;;;;;1.13;1.10;;;;;;;;;;4880434;29;20197;-84
2022/09/08 03:24:20;;;;;;;2.00;1.57;;;7.80;99.90;;;;;;4881442;29;20184;-83
2022/09/08 03:26:46;;;;;;;1.27;1.10;;;8.10;99.90;;;;;;4881080;29;20574;-84
2022/09/08 03:29:11;;;;;;;0.87;0.87;;;7.90;99.90;;;;;;4864580;29;20727;-84
2022/09/08 03:31:37;;;;;;;1.33;1.23;;;;;;;;;;4879679;29;20226;-84
2022/09/08 03:34:03;;;;;;;2.50;1.37;;;7.80;99.90;;;;;;4876281;29;20292;-84
2022/09/08 03:36:29;;;;;;;2.50;2.23;;;7.80;99.90;;;;;;4853458;29;20198;-81
2022/09/08 03:38:54;;;;;;;3.23;2.07;;;8.20;99.90;;;;;;4866550;29;20195;-80
2022/09/08 03:41:20;;;;;;;1.90;1.70;;;7.90;99.90;;;;;;4876263;29;20204;-82
2022/09/08 03:43:48;;;;;;;6.03;1.87;;;7.90;99.90;;;;;;4875955;29;20194;-82
2022/09/08 03:46:15;;;;;;;0.93;0.87;;;;;;;;;;4870270;29;20648;-80
2022/09/08 03:48:41;;;;;;;4.90;1.77;;;7.90;99.90;;;;;;4866243;29;20258;-80
2022/09/08 03:51:25;;;;;;;1.40;1.30;;;8.30;99.90;;;;;;4874778;29;20281;-81
2022/09/08 03:53:52;;;;;;;2.37;1.93;;;7.80;99.90;;;;;;4867674;29;20194;-80
2022/09/08 03:56:18;;;;;;;2.07;1.60;;;;;;;;;;4874771;29;20197;-80
2022/09/08 03:58:44;;;;;;;2.60;2.00;;;7.70;99.90;;;;;;4879279;29;20583;-80
2022/09/08 04:01:14;;;;;;;3.23;1.17;;;7.80;99.90;;;;;;4867755;29;20210;-83
2022/09/08 04:03:39;;;;;;;1.77;1.67;;;7.80;99.90;;;;;;4863728;29;20198;-82
2022/09/08 04:06:05;;;;;;;1.77;1.67;;;7.80;99.90;;;;;;4866756;29;20190;-80
2022/09/08 04:08:31;;;;;;;1.67;1.57;;;7.80;99.90;;;;;;4879392;29;20196;-79
2022/09/08 04:10:57;;;;;;;1.90;1.43;;;7.80;99.90;;;;;;4868152;29;20225;-81
2022/09/08 04:13:23;;;;;;;3.47;2.23;;;7.80;99.90;;;;;;4859518;29;20211;-79
2022/09/08 04:15:49;;;;;;;3.33;2.03;;;10.00;99.90;;;;;;4874142;29;20723;-84
2022/09/08 04:18:15;;;;;;;4.97;2.30;;;7.90;99.90;;;;;;4885002;29;20204;-80
2022/09/08 04:20:41;;;;;;;3.30;2.50;;;8.10;99.90;;;;;;4879583;29;20225;-79
2022/09/08 04:23:07;;;;;;;3.83;2.57;;;8.60;99.90;;;;;;4877452;29;20197;-79
2022/09/08 04:25:33;;;;;;;4.03;3.20;;;7.90;99.90;;;;;;4873457;29;20194;-80
2022/09/08 04:27:58;;;;;;;4.50;2.73;;;8.40;99.90;;;;;;4861145;29;20200;-79
2022/09/08 04:30:24;;;;;;;3.83;2.60;;;8.00;99.90;;;;;;4879127;29;20735;-80
2022/09/08 04:32:50;;;;;;;3.50;2.70;;;9.40;99.90;;;;;;4877983;29;20190;-83
2022/09/08 04:35:16;;;;;;;6.93;1.10;;;8.10;99.90;;;;;;4891953;29;20202;-81
2022/09/08 04:37:42;;;;;;;4.40;1.37;;;;;;;;;;4892771;29;20221;-81
2022/09/08 04:40:08;;;;;;;1.13;1.03;;;8.30;99.90;;;;;;4879261;29;20197;-81
2022/09/08 04:42:35;;;;;;;1.33;1.13;;;8.40;99.90;;;;;;4877213;29;20209;-80
2022/09/08 04:45:01;;;;;;;2.40;1.37;;;10.20;99.90;;;;;;4877682;29;20185;-81
2022/09/08 04:47:27;;;;;;;4.83;2.03;;;8.50;99.90;;;;;;4874898;29;20651;-82
2022/09/08 04:49:53;;;;;;;1.33;1.10;;;;;;;;;;4875074;29;20202;-82
2022/09/08 04:52:25;;;;;;;3.60;1.23;;;8.70;99.90;;;;;;4874117;29;20204;-81
2022/09/08 04:54:51;;;;;;;1.97;1.60;;;8.80;99.90;;;;;;4867741;29;20301;-81
2022/09/08 04:57:17;;;;;;;4.80;1.70;;;8.80;99.90;;;;;;4865876;29;20858;-80
2022/09/08 04:59:42;;;;;;;3.20;1.50;;;8.90;99.90;;;;;;4831243;29;20186;-81
2022/09/08 05:02:08;;;;;;;2.47;1.73;;;8.90;99.90;;;;;;4876902;29;20540;-82
2022/09/08 05:04:33;;;;;;;1.90;1.20;;;9.00;99.90;;;;;;4877837;29;20205;-82
2022/09/08 05:06:59;;;;;;;1.37;1.27;;;9.00;99.90;;;;;;4864750;29;20674;-82
2022/09/08 05:09:25;;;;;;;1.73;1.53;;;9.10;99.90;;;;;;4872880;29;20197;-84
2022/09/08 05:11:51;;;;;;;2.90;2.43;;;;;;;;;;4876028;29;20329;-84
2022/09/08 05:14:16;;;;;;;4.37;1.37;;;9.20;99.90;;;;;;4864013;29;20205;-84
2022/09/08 05:16:42;;;;;;;2.10;1.40;;;9.20;99.90;;;;;;4858447;29;20197;-85
2022/09/08 05:19:08;;;;;;;2.43;0.90;;;;;;;;;;4858631;29;20640;-83
2022/09/08 05:21:35;;;;;;;4.00;1.17;;;9.40;99.90;;;;;;4860241;29;20228;-84
2022/09/08 05:24:02;;;;;;;1.30;1.30;;;9.50;99.90;;;;;;4888317;29;20237;-84
2022/09/08 05:26:28;;;;;;;1.93;1.83;;;9.50;99.90;;;;;;4862258;29;20587;-83
2022/09/08 05:28:55;;;;;;;2.73;2.53;;;9.70;99.90;;;;;;4877550;29;20268;-83
2022/09/08 05:31:27;;;;;;;1.33;1.23;;;9.70;99.90;;;;;;4879249;29;20260;-83
2022/09/08 05:33:58;;;;;;;1.57;1.33;;;9.80;99.90;;;;;;4879316;29;20190;-84
2022/09/08 05:36:26;;;;;;;1.00;0.90;;;10.00;99.90;;;;;;4878949;29;20647;-84
2022/09/08 05:38:52;;;;;;;1.47;1.00;;;10.20;99.90;;;;;;4878688;29;20277;-83
2022/09/08 05:41:18;;;;;;;0.87;0.83;;;10.20;99.90;;;;;;4878100;29;20237;-83
2022/09/08 05:43:44;;;;;;;2.17;2.00;;;10.40;99.90;;;;;;4878936;29;20719;-83
2022/09/08 05:46:10;;;;;;;1.95;1.83;;;11.00;99.90;;;;;;4878569;29;20190;-84
2022/09/08 05:48:36;;;;;;;3.30;1.80;;;10.50;99.90;;;;;;4878772;29;20189;-85
2022/09/08 05:51:05;;;;;;;1.83;1.20;;;11.40;99.90;;;;;;4878517;29;20213;-84
2022/09/08 05:53:31;;;;;;;3.10;1.70;;;10.70;99.90;;;;;;4876662;29;20186;-83
2022/09/08 05:56:02;;;;;;;1.30;1.08;;;10.80;99.90;;;;;;4877495;29;20219;-84
2022/09/08 05:58:29;;;;;;;2.47;1.90;;;11.00;99.90;;;;;;4873298;29;20297;-84
2022/09/08 06:01:10;;;;;;;4.45;1.90;;;11.10;99.90;;;;;;4877694;29;20194;-84
2022/09/08 06:03:36;;;;;;;1.42;1.27;;;11.20;99.90;;;;;;4876042;29;20193;-83
2022/09/08 06:06:07;;;;;;;2.38;1.48;;;11.40;99.90;;;;;;4876673;29;20198;-84
2022/09/08 06:08:34;;;;;;;1.77;1.58;;;11.50;99.90;;;;;;4876118;29;20189;-83
2022/09/08 06:11:00;;;;;;;3.70;1.40;;;11.70;99.90;;;;;;4877482;29;20312;-83
2022/09/08 06:13:26;;;;;;;1.45;1.30;;;11.80;99.90;;;;;;4876016;29;20273;-84
2022/09/08 06:15:52;;;;;;;2.10;1.58;;;11.90;99.90;;;;;;4877513;29;20190;-85
2022/09/08 06:18:18;;;;;;;1.98;1.77;;;12.10;99.90;;;;;;4862390;29;20192;-84
2022/09/08 06:20:45;;;;;;;2.83;1.48;;;12.20;99.90;;;;;;4878288;29;20230;-84
2022/09/08 06:23:11;;;;;;;4.90;1.77;;;12.30;99.90;;;;;;4877766;29;20615;-84
2022/09/08 06:25:45;;;;;;;1.13;1.00;;;12.40;99.90;;;;;;4878535;29;20269;-84
2022/09/08 06:28:47;;;;;;;3.08;1.55;;;12.70;99.90;;;;;;4882156;29;20170;-83
2022/09/08 06:31:16;;;;;;;1.58;1.08;;;12.80;99.90;;;;;;4848917;29;20317;-84
2022/09/08 06:33:43;;;;;;;1.92;1.80;;;13.00;99.90;;;;;;4881340;29;20193;-83
2022/09/08 06:36:24;;;;;;;1.75;1.52;;;13.10;99.90;;;;;;4881365;29;20185;-83
2022/09/08 06:39:08;;;;;;;2.22;1.50;;;13.20;99.90;;;;;;4881419;29;20180;-84
2022/09/08 06:41:44;;;;;;;3.22;1.75;;;13.40;99.90;;;;;;4880484;29;20213;-85
2022/09/08 06:44:20;;;;;;;2.03;1.13;;;13.50;99.90;;;;;;4881819;29;20562;-86
2022/09/08 06:46:46;;;;;;;3.85;2.20;;;13.60;99.90;;;;;;4880589;29;20181;-83
2022/09/08 06:49:12;;;;;;;3.72;1.42;;;13.80;99.90;;;;;;4880561;29;20568;-84
2022/09/08 06:51:37;;;;;;;4.47;1.80;;;13.90;99.90;;;;;;4881678;29;20305;-84
2022/09/08 06:54:09;;;;;;;1.92;1.58;;;14.00;99.90;;;;;;4881673;29;20194;-82
2022/09/08 06:57:04;;;;;;;1.48;1.38;;;14.10;99.90;;;;;;4881709;29;20182;-82
2022/09/08 07:00:12;;;;;;;1.73;1.50;;;14.30;99.90;;;;;;4868675;29;20217;-83
2022/09/08 07:02:47;;;;;;;2.10;1.67;;;14.40;99.90;;;;;;4880619;29;20206;-84
2022/09/08 07:05:31;;;;;;;1.77;1.60;;;14.60;99.40;;;;;;4881029;29;20185;-83
2022/09/08 07:08:17;;;;;;;5.25;1.90;;;14.70;99.00;;;;;;4879513;29;20188;-83
2022/09/08 07:10:50;;;;;;;3.30;2.10;;;14.90;98.00;;;;;;4879624;29;20229;-83
2022/09/08 07:13:43;;;;;;;2.33;1.92;;;15.10;96.50;;;;;;4879784;29;20228;-83
2022/09/08 07:16:11;;;;;;;5.53;1.83;;;15.30;95.20;;;;;;4879880;29;20193;-83
2022/09/08 07:18:41;;;;;;;4.88;2.13;;;15.40;94.10;;;;;;4880161;29;20262;-84
2022/09/08 07:21:28;;;;;;;2.50;1.60;;;15.50;93.70;;;;;;4881791;29;20181;-83
2022/09/08 07:23:57;;;;;;;3.38;1.65;;;15.60;93.10;;;;;;4881214;29;20675;-84
2022/09/08 07:26:53;;;;;;;2.42;1.35;;;15.70;92.20;;;;;;4879900;29;20190;-84
2022/09/08 07:29:29;;;;;;;3.08;1.60;;;15.90;91.20;;;;;;4875865;29;20655;-84
2022/09/08 07:31:57;;;;;;;3.33;2.13;;;16.00;91.00;;;;;;4880242;29;20217;-84
2022/09/08 07:34:30;;;;;;;3.80;1.65;;;16.10;91.40;;;;;;4881206;29;20268;-83
2022/09/08 07:37:11;;;;;;;4.40;2.15;;;16.10;90.60;;;;;;4880166;29;20182;-84
2022/09/08 07:39:56;;;;;;;3.22;1.55;;;16.30;89.10;;;;;;4879253;29;20185;-84
2022/09/08 07:42:22;;;;;;;2.53;1.13;;;16.30;89.10;;;;;;4881128;29;20236;-84
2022/09/08 07:44:56;;;;;;;2.47;1.70;;;16.50;87.80;;;;;;4880135;29;20350;-84
2022/09/08 07:47:28;;;;;;;2.35;1.55;;;16.50;87.70;;;;;;4880985;29;20190;-84
2022/09/08 07:50:05;;;;;;;2.47;1.77;;;16.60;87.90;;;;;;4879802;29;20186;-83
2022/09/08 07:53:00;;;;;;;2.35;1.77;;;16.70;87.50;;;;;;4880585;29;20279;-83
2022/09/08 07:55:40;;;;;;;3.63;1.48;;;16.90;85.20;;;;;;4879489;29;20182;-83
2022/09/08 07:58:21;;;;;;;2.75;1.65;;;17.00;84.40;;;;;;4881072;29;20238;-82
2022/09/08 08:01:11;;;;;;;1.38;1.27;;;17.10;83.00;;;;;;4881197;29;20201;-83
2022/09/08 08:04:00;;;;;;;2.58;1.30;;;17.20;82.70;;;;;;4879677;29;20230;-83
2022/09/08 08:06:44;;;;;;;1.85;1.50;;;17.30;82.10;;;;;;4880549;29;20612;-84
2022/09/08 08:09:40;;;;;;;2.63;1.45;;;17.40;82.40;;;;;;4879613;29;20181;-84
2022/09/08 08:12:26;;;;;;;2.22;1.55;;;17.40;81.30;;;;;;4880722;29;20210;-83
2022/09/08 08:15:00;;;;;;;2.25;1.20;;;17.80;80.00;;;;;;4879228;29;20201;-83
2022/09/08 08:17:37;;;;;;;2.38;1.40;;;17.50;80.20;;;;;;4880167;29;20180;-83
2022/09/08 08:20:29;;;;;;;3.63;1.42;;;17.70;80.50;;;;;;4879444;29;20234;-83
2022/09/08 08:23:25;;;;;;;4.55;1.40;;;17.80;79.60;;;;;;4880564;29;20189;-83
2022/09/08 08:25:57;;;;;;;2.50;1.27;;;18.00;80.00;;;;;;4880893;29;20166;-83
2022/09/08 08:28:31;;;;;;;2.58;1.55;;;18.10;77.70;;;;;;4880703;29;20190;-84
2022/09/08 08:31:34;;;;;;;7.90;1.52;;;18.20;78.70;;;;;;4880256;29;20261;-83
2022/09/08 08:34:10;;;;;;;4.85;2.00;;;18.30;79.40;;;;;;4879057;29;20244;-82
2022/09/08 08:36:42;;;;;;;3.80;1.77;;;18.30;77.60;;;;;;4878924;29;20192;-83
2022/09/08 08:39:21;;;;;;;3.47;1.67;;;18.40;78.40;;;;;;4880274;29;20189;-83
2022/09/08 08:41:54;;;;;;;1.33;1.23;;;18.50;77.20;;;;;;4878586;29;20190;-83
2022/09/08 08:44:38;;;;;;;1.60;1.40;;;18.60;76.40;;;;;;4878607;29;20659;-82
2022/09/08 08:47:06;;;;;;;1.45;1.20;;;18.70;75.20;;;;;;4880356;29;20185;-82
2022/09/08 08:50:06;;;;;;;1.88;1.60;;;18.90;73.70;;;;;;4879572;29;20224;-84
2022/09/08 08:52:50;;;;;;;2.85;1.85;;;19.10;73.60;;;;;;4878889;29;20201;-82
2022/09/08 08:55:34;;;;;;;2.25;1.50;;;19.30;71.60;;;;;;4878779;29;20248;-83
2022/09/08 08:58:00;;;;;;;1.52;1.20;;;19.30;71.90;;;;;;4878654;29;20233;-84
2022/09/08 09:01:07;;;;;;;1.73;1.20;;;19.40;69.40;;;;;;4879683;29;20188;-83
2022/09/08 09:03:39;;;;;;;2.17;1.55;;;19.50;68.40;;;;;;4860222;29;20196;-82
2022/09/08 09:06:27;;;;;;;4.05;1.50;;;19.40;69.00;;;;;;4877979;29;20178;-83
2022/09/08 09:09:37;;;;;;;3.25;1.50;;;19.60;69.10;;;;;;4877401;29;20205;-83
2022/09/08 09:12:15;;;;;;;2.67;1.60;;;19.80;68.90;;;;;;4878395;29;20214;-82
2022/09/08 09:15:12;;;;;;;1.83;1.10;;;19.90;68.40;;;;;;4878238;29;20679;-82
2022/09/08 09:17:47;;;;;;;3.03;1.48;;;20.00;69.10;;;;;;4829915;29;20201;-83
2022/09/08 09:20:38;;;;;;;1.80;1.23;;;20.20;67.00;;;;;;4878644;29;20193;-85
2022/09/08 09:23:11;;;;;;;1.85;1.20;;;20.20;66.30;;;;;;4879429;29;20178;-83
2022/09/08 09:25:45;;;;;;;1.45;1.17;;;20.30;65.40;;;;;;4877934;29;20186;-82
2022/09/08 09:28:44;;;;;;;2.08;1.40;;;20.40;66.40;;;;;;4878251;29;20563;-83
2022/09/08 09:31:44;;;;;;;3.08;1.35;;;20.50;66.20;;;;;;4879850;29;20210;-82
2022/09/08 09:34:29;;;;;;;2.67;1.52;;;20.70;64.80;;;;;;4879367;29;20182;-82
2022/09/08 09:37:13;;;;;;;2.40;1.40;;;20.70;64.80;;;;;;4877933;29;20182;-82
2022/09/08 09:40:07;;;;;;;2.63;1.52;;;20.80;65.30;;;;;;4878893;29;20587;-82
2022/09/08 09:43:02;;;;;;;3.72;1.73;;;20.90;64.40;;;;;;4879386;29;20230;-85
2022/09/08 09:45:39;;;;;;;2.63;1.30;;;21.00;62.30;;;;;;4879166;29;20261;-84
2022/09/08 09:48:43;;;;;;;2.92;1.20;;;21.10;64.40;;;;;;4879433;29;20217;-83
2022/09/08 09:51:29;;;;;;;6.05;2.00;;;21.20;62.10;;;;;;4879181;29;20201;-83
2022/09/08 09:54:03;;;;;;;1.85;1.60;;;21.30;62.90;;;;;;4878145;29;20204;-83
2022/09/08 09:56:53;;;;;;;2.40;1.42;;;21.50;61.90;;;;;;4879807;29;20743;-83
2022/09/08 09:59:42;;;;;;;4.97;1.90;;;21.50;61.80;;;;;;4877943;29;20286;-82
2022/09/08 10:03:02;;;;;;;5.70;1.55;;;21.70;61.30;;;;;;4880305;29;20210;-85
2022/09/08 10:06:05;;;;;;;1.48;1.23;;;21.70;60.20;;;;;;4825490;29;20570;-82
2022/09/08 10:08:50;;;;;;;1.58;1.05;;;21.80;60.50;;;;;;4881626;29;20284;-82
2022/09/08 10:11:16;;;;;;;1.83;1.27;;;;;;;;;;4882073;29;20221;-82
2022/09/08 10:14:02;;;;;;;2.03;1.70;;;21.90;58.90;;;;;;4882288;29;20588;-85
2022/09/08 10:17:02;;;;;;;2.90;1.83;;;21.90;58.90;;;;;;4882978;29;20181;-81
2022/09/08 10:20:03;;;;;;;2.28;1.42;;;22.00;58.90;;;;;;4882770;29;20636;-82
2022/09/08 10:22:40;;;;;;;4.22;1.70;;;22.00;58.30;;;;;;4880586;29;20200;-83
2022/09/08 10:25:57;;;;;;;3.88;1.50;;;22.30;58.40;;;;;;4882608;29;20674;-80
2022/09/08 10:28:56;;;;;;;2.90;1.20;;;22.40;58.80;;;;;;4850346;29;20198;-84
2022/09/08 10:31:59;;;;;;;1.70;1.58;;;22.50;58.10;;;;;;4879762;29;20706;-82
2022/09/08 10:34:49;;;;;;;2.33;1.67;;;22.60;57.00;;;;;;4881044;29;20186;-83
2022/09/08 10:37:56;;;;;;;2.92;1.67;;;22.70;57.40;;;;;;4881448;29;20547;-81
2022/09/08 10:40:39;;;;;;;2.35;1.55;;;22.60;57.60;;;;;;4849043;29;20253;-82
2022/09/08 10:43:05;;;;;;;5.63;2.22;;;;;;;;;;4880646;29;20277;-82
2022/09/08 10:46:32;;;;;;;1.80;1.30;;;22.60;58.10;;;;;;4880879;29;20699;-81
2022/09/08 10:49:29;;;;;;;2.63;1.70;;;22.90;56.70;;;;;;4861141;29;20239;-82
2022/09/08 10:52:11;;;;;;;4.13;1.80;;;22.70;56.50;;;;;;4859390;29;20246;-82
2022/09/08 10:54:56;;;;;;;2.20;1.35;;;22.80;56.80;;;;;;4877633;29;20209;-81
2022/09/08 10:57:37;;;;;;;1.80;1.55;;;23.00;57.80;;;;;;4880728;29;20246;-81
2022/09/08 11:00:08;;;;;;;4.40;1.70;;;23.10;57.10;;;;;;4882227;29;20186;-82
2022/09/08 11:02:55;;;;;;;4.32;1.52;;;23.00;55.80;;;;;;4880278;29;20333;-80
2022/09/08 11:05:40;;;;;;;3.33;1.77;;;22.90;56.50;;;;;;4851953;29;20194;-81
2022/09/08 11:08:27;;;;;;;7.57;1.92;;;22.80;56.60;;;;;;4881561;29;20231;-81
2022/09/08 11:11:24;;;;;;;8.05;2.72;;;22.80;56.60;;;;;;4880524;29;20248;-81
2022/09/08 11:14:11;;;;;;;2.83;1.73;;;22.90;57.30;;;;;;4857045;29;20722;-82
2022/09/08 11:16:48;;;;;;;2.17;1.63;;;23.00;56.50;;;;;;4882191;29;20661;-84
2022/09/08 11:19:36;;;;;;;3.58;1.98;;;23.10;56.70;;;;;;4882291;29;20173;-81
2022/09/08 11:22:17;;;;;;;1.98;1.67;;;23.20;57.00;;;;;;4880833;29;20190;-83
2022/09/08 11:25:13;;;;;;;2.78;1.88;;;23.20;55.30;;;;;;4884803;29;20196;-82
2022/09/08 11:27:59;;;;;;;3.10;1.73;;;23.30;56.30;;;;;;4890984;29;20189;-84
2022/09/08 11:30:52;;;;;;;3.17;1.50;;;23.20;56.50;;;;;;4884048;29;20206;-84
2022/09/08 11:33:36;;;;;;;2.22;1.92;;;23.30;57.10;;;;;;4888752;29;20175;-83
2022/09/08 11:36:17;;;;;;;3.53;1.73;;;23.20;56.90;;;;;;4888639;29;20370;-84
2022/09/08 11:39:04;;;;;;;1.90;1.60;;;23.20;56.90;;;;;;4878496;29;20201;-83
2022/09/08 11:41:56;;;;;;;4.32;1.70;;;23.10;56.30;;;;;;4879114;29;20181;-83
2022/09/08 11:44:22;;;;;;;3.05;1.92;;;;;;;;;;4878762;29;20182;-83
2022/09/08 11:47:16;;;;;;;2.05;1.27;;;22.90;56.60;;;;;;4879617;29;20561;-85
2022/09/08 11:50:02;;;;;;;4.25;1.85;;;22.90;57.10;;;;;;4878815;29;20542;-84
2022/09/08 11:52:28;;;;;;;2.20;1.30;;;22.90;57.20;;;;;;4880226;29;20307;-84
2022/09/08 11:55:31;;;;;;;3.30;1.77;;;22.90;57.20;;;;;;4880668;29;20256;-83
2022/09/08 11:58:23;;;;;;;2.38;1.38;;;22.90;57.80;;;;;;4879230;29;20317;-82
2022/09/08 12:00:58;;;;;;;3.10;1.98;;;22.80;57.30;;;;;;4879943;29;20178;-84
2022/09/08 12:03:23;;;;;;;5.50;1.85;;;22.80;57.40;;;;;;4879954;29;20196;-84
2022/09/08 12:05:59;;;;;;;2.90;1.95;;;22.70;57.50;;;;;;4880693;29;20178;-83
2022/09/08 12:08:33;;;;;;;2.08;1.75;;;22.80;58.70;;;;;;4880296;29;20189;-84
2022/09/08 12:11:26;;;;;;;1.83;1.27;;;22.70;57.80;;;;;;4880591;29;20216;-83
2022/09/08 12:14:07;;;;;;;4.43;2.05;;;22.60;57.10;;;;;;4880804;29;20274;-84
2022/09/08 12:16:54;;;;;;;2.40;1.65;;;22.60;57.60;;;;;;4879910;29;20193;-82
2022/09/08 12:19:39;;;;;;;2.42;1.70;;;22.70;57.50;;;;;;4878799;29;20241;-83
2022/09/08 12:22:35;;;;;;;3.03;2.05;;;22.80;57.50;;;;;;4879058;29;20654;-84
2022/09/08 12:25:03;;;;;;;4.55;2.03;;;23.00;57.90;;;;;;4880168;29;20640;-84
2022/09/08 12:27:54;;;;;;;1.83;1.40;;;23.20;58.00;;;;;;4879155;29;20207;-84
2022/09/08 12:30:21;;;;;;;3.88;2.00;;;23.30;56.60;;;;;;4879150;29;20186;-85
2022/09/08 12:32:51;;;;;;;2.13;1.67;;;23.20;56.80;;;;;;4880197;29;20238;-85
2022/09/08 12:35:29;;;;;;;2.97;1.75;;;23.10;57.40;;;;;;4877934;29;20193;-84
2022/09/08 12:38:24;;;;;;;2.30;1.70;;;23.20;57.80;;;;;;4879280;29;20178;-82
2022/09/08 12:41:43;;;;;;;1.80;1.10;;;23.10;57.30;;;;;;4879892;29;20193;-83
2022/09/08 12:44:33;;;;;;;1.70;1.40;;;23.00;56.50;;;;;;4823166;29;20188;-84
2022/09/08 12:47:16;;;;;;;1.50;1.30;;;23.00;57.30;;;;;;4878583;29;20644;-83
2022/09/08 12:50:02;;;;;;;5.32;1.85;;;23.00;56.90;;;;;;4877824;29;20178;-86
2022/09/08 12:52:27;;;;;;;2.80;1.58;;;23.00;57.10;;;;;;4880205;29;20238;-85
2022/09/08 12:55:24;;;;;;;4.38;1.63;;;23.10;56.70;;;;;;4879949;29;20185;-83
2022/09/08 12:57:55;;;;;;;2.50;1.77;;;22.90;56.70;;;;;;4878833;29;20333;-85
2022/09/08 13:00:27;;;;;;;2.38;1.52;;;22.80;57.10;;;;;;4879551;29;20196;-84
2022/09/08 13:03:14;;;;;;;1.23;1.13;;;22.80;57.10;;;;;;4860350;29;20369;-83
2022/09/08 13:05:40;;;;;;;3.38;1.90;;;22.90;58.10;;;;;;4860950;29;20640;-83
2022/09/08 13:08:15;;;;;;;2.63;1.60;;;22.90;56.90;;;;;;4860905;29;20185;-83
2022/09/08 13:10:44;;;;;;;2.72;1.90;;;23.10;55.90;;;;;;4861684;29;20212;-83
2022/09/08 13:13:35;;;;;;;4.60;2.05;;;23.10;56.40;;;;;;4860471;29;20186;-83
2022/09/08 13:16:18;;;;;;;2.15;1.35;;;23.50;56.60;;;;;;4861869;29;20644;-83
2022/09/08 13:18:52;;;;;;;2.65;1.80;;;23.70;55.90;;;;;;4861367;29;20182;-83
2022/09/08 13:21:39;;;;;;;3.33;1.85;;;24.00;55.70;;;;;;4861915;29;20646;-83
2022/09/08 13:24:33;;;;;;;4.53;1.90;;;24.20;55.40;;;;;;4859823;29;20676;-84
2022/09/08 13:27:23;;;;;;;5.18;2.47;;;24.30;54.50;;;;;;4861062;29;20649;-82
2022/09/08 13:30:07;;;;;;;3.35;2.00;;;24.50;54.00;;;;;;4860013;29;20182;-82
2022/09/08 13:32:50;;;;;;;2.40;1.60;;;24.60;54.30;;;;;;4860194;29;20222;-85
2022/09/08 13:35:37;;;;;;;2.63;1.67;;;24.90;54.60;;;;;;4861555;29;20178;-82
2022/09/08 13:38:53;;;;;;;2.88;1.70;;;25.10;53.20;;;;;;4861938;29;20187;-84
2022/09/08 13:41:53;;;;;;;4.20;1.90;;;25.00;52.50;;;;;;4838837;29;20198;-84
2022/09/08 13:44:38;;;;;;;1.95;1.35;;;25.00;53.10;;;;;;4851349;29;20202;-84
2022/09/08 13:47:32;;;;;;;2.20;1.65;;;24.80;53.00;;;;;;4861705;29;20249;-82
2022/09/08 13:50:17;;;;;;;2.58;1.48;;;24.80;52.90;;;;;;4859061;29;20198;-83